Time;durP1;ratioP1;P1;durP2;ratioP2;P2;SDS_P1;SDS_P2;PMS_P1;PMS_P2;Temp;Humidity;BMP_temperature;BMP_pressure;BME280_temperature;BME280_humidity;BME280_pressure;Samples;Min_cycle;Max_cycle;Signal;HPM_P1;HPM_P2
2023/07/06 00:03:18;;;;;;;8.70;4.90;;;;;;;21.27;71.80;98845.75;223709;181;138943;-67
2023/07/06 00:08:21;;;;;;;9.50;4.40;;;;;;;21.33;71.46;98845.00;223660;181;137760;-68
2023/07/06 00:13:25;;;;;;;7.30;4.50;;;;;;;21.34;71.11;98844.31;223809;182;147039;-67
2023/07/06 00:18:29;;;;;;;5.70;4.10;;;;;;;21.37;70.74;98840.23;223545;182;140496;-68
2023/07/06 00:23:32;;;;;;;7.00;4.10;;;;;;;21.33;70.32;98842.95;223639;182;137232;-69
2023/07/06 00:28:38;;;;;;;6.90;4.20;;;;;;;21.27;69.99;98840.86;223659;182;147628;-67
2023/07/06 00:33:49;;;;;;;6.60;3.70;;;;;;;21.20;70.17;98843.17;223766;182;141094;-67
2023/07/06 00:38:52;;;;;;;7.60;3.80;;;;;;;21.13;70.20;98843.82;223676;183;137823;-68
2023/07/06 00:43:56;;;;;;;7.20;3.90;;;;;;;21.11;69.92;98857.83;223642;182;147699;-70
2023/07/06 00:49:03;;;;;;;9.20;4.60;;;;;;;21.11;69.79;98854.42;223636;181;140554;-68
2023/07/06 00:54:12;;;;;;;11.70;4.30;;;;;;;21.05;69.74;98869.13;223692;182;137624;-69
2023/07/06 00:59:19;;;;;;;9.50;4.50;;;;;;;20.97;69.81;98861.66;223713;182;147550;-66
2023/07/06 01:04:22;;;;;;;11.20;4.70;;;;;;;20.90;70.03;98860.06;223684;182;138433;-67
2023/07/06 01:09:29;;;;;;;9.30;4.70;;;;;;;20.82;69.95;98857.40;223766;182;137799;-67
2023/07/06 01:14:32;;;;;;;5.70;4.10;;;;;;;20.77;70.16;98854.75;223679;182;147563;-67
2023/07/06 01:19:44;;;;;;;7.90;4.10;;;;;;;20.79;70.18;98849.55;223721;181;138780;-66
2023/07/06 01:25:14;;;;;;;9.40;4.90;;;;;;;20.79;70.11;98851.69;223690;182;269152;-66
2023/07/06 01:30:34;;;;;;;8.60;4.60;;;;;;;20.81;69.93;98850.30;223823;181;147509;-69
2023/07/06 01:36:08;;;;;;;8.40;4.40;;;;;;;20.76;69.82;98849.71;223832;181;138750;-64
2023/07/06 01:41:11;;;;;;;7.20;4.50;;;;;;;20.69;69.97;98847.52;223755;181;137102;-67
2023/07/06 01:46:15;;;;;;;9.30;4.60;;;;;;;20.58;70.29;98850.02;223950;181;146958;-67
2023/07/06 01:51:57;;;;;;;7.10;3.80;;;;;;;20.58;70.64;98850.42;223728;180;138558;-68
2023/07/06 01:57:07;;;;;;;10.90;4.40;;;;;;;20.57;70.74;98861.81;223729;181;139431;-66
2023/07/06 02:02:13;;;;;;;8.70;4.50;;;;;;;20.56;70.84;98869.34;223662;181;149284;-65
2023/07/06 02:07:20;;;;;;;12.70;4.60;;;;;;;20.57;70.67;98875.29;223712;180;138806;-67
2023/07/06 02:12:23;;;;;;;11.70;5.20;;;;;;;20.52;70.70;98869.90;223669;181;137692;-71
2023/07/06 02:17:26;;;;;;;8.60;4.30;;;;;;;20.46;70.64;98866.55;223664;181;147202;-67
2023/07/06 02:22:32;;;;;;;9.90;4.20;;;;;;;20.44;70.71;98871.11;223742;180;138355;-66
2023/07/06 02:27:36;;;;;;;10.80;4.80;;;;;;;20.46;70.70;98869.65;223766;181;137856;-67
2023/07/06 02:32:39;;;;;;;9.30;4.80;;;;;;;20.51;70.48;98874.52;223768;181;147173;-65
2023/07/06 02:37:43;;;;;;;7.90;4.80;;;;;;;20.50;70.16;98879.27;223809;181;140418;-65
2023/07/06 02:42:46;;;;;;;9.30;4.40;;;;;;;20.46;70.02;98882.08;223671;181;139168;-67
2023/07/06 02:47:49;;;;;;;14.40;8.50;;;;;;;20.39;70.17;98897.69;223845;180;147453;-65
2023/07/06 02:52:52;;;;;;;48.00;39.10;;;;;;;20.28;70.37;98897.97;223852;180;138920;-69
2023/07/06 03:02:03;;;;;;;10.00;5.20;;;;;;;20.22;70.72;98905.17;220595;194;686635;-68
2023/07/06 03:07:07;;;;;;;12.30;5.40;;;;;;;20.23;70.68;98904.84;223597;184;136683;-70
2023/07/06 03:12:11;;;;;;;10.30;5.20;;;;;;;20.19;70.55;98915.02;223532;184;143416;-69
2023/07/06 03:17:14;;;;;;;9.50;5.20;;;;;;;20.19;70.51;98919.67;223688;184;263757;-67
2023/07/06 03:22:18;;;;;;;8.90;5.10;;;;;;;20.15;70.42;98923.34;223670;184;136720;-67
2023/07/06 03:27:21;;;;;;;11.90;5.50;;;;;;;20.10;70.68;98927.08;223608;184;144889;-68
2023/07/06 03:32:25;;;;;;;8.90;5.10;;;;;;;20.14;70.62;98930.52;223653;182;139163;-69
2023/07/06 03:37:29;;;;;;;14.90;8.80;;;;;;;20.21;70.49;98935.36;223739;182;137707;-69
2023/07/06 03:42:32;;;;;;;11.70;5.90;;;;;;;20.15;70.19;98944.03;223689;182;143501;-69
2023/07/06 03:47:37;;;;;;;10.60;6.70;;;;;;;20.07;70.44;98954.19;223771;182;138326;-67
2023/07/06 03:52:41;;;;;;;;;;;;;;;19.98;70.71;98963.04;223651;182;137455;-65
2023/07/06 03:58:07;;;;;;;8.20;5.70;;;;;;;19.98;70.81;98967.39;223687;182;145352;-67
2023/07/06 04:03:11;;;;;;;;;;;;;;;20.01;70.83;98974.60;223680;182;139503;-68
2023/07/06 04:08:20;;;;;;;12.20;6.70;;;;;;;20.01;70.69;98974.77;223589;182;129192;-66
2023/07/06 04:13:24;;;;;;;9.60;5.70;;;;;;;20.02;70.46;98985.52;223675;182;145654;-67
2023/07/06 04:18:27;;;;;;;17.50;6.30;;;;;;;20.00;70.33;99002.27;223716;182;138623;-66
2023/07/06 04:23:30;;;;;;;15.00;6.10;;;;;;;19.95;70.31;99012.38;223609;182;136988;-65
2023/07/06 04:28:33;;;;;;;10.80;6.60;;;;;;;19.97;70.27;99015.36;223765;183;145487;-65
2023/07/06 04:33:37;;;;;;;12.70;6.90;;;;;;;20.07;70.11;99015.79;223735;182;138439;-65
2023/07/06 04:38:40;;;;;;;10.50;5.90;;;;;;;20.19;69.65;99024.36;223616;183;137956;-66
2023/07/06 04:43:44;;;;;;;9.60;5.90;;;;;;;20.27;69.34;99025.27;223568;182;145685;-68
2023/07/06 04:48:48;;;;;;;11.80;5.90;;;;;;;20.29;69.07;99028.15;223636;182;138371;-64
2023/07/06 04:53:51;;;;;;;10.10;5.50;;;;;;;20.29;68.57;99029.20;223755;182;136235;-70
2023/07/06 05:02:06;;;;;;;17.70;10.30;;;;;;;20.34;68.51;99030.87;221833;193;665791;-70
2023/07/06 05:07:13;;;;;;;10.00;4.90;;;;;;;20.40;68.25;99036.73;223509;183;137566;-67
2023/07/06 05:12:26;;;;;;;9.10;4.70;;;;;;;20.56;67.76;99047.27;223638;183;143509;-68
2023/07/06 05:17:31;;;;;;;9.20;4.60;;;;;;;20.60;67.00;99046.83;223461;183;138268;-66
2023/07/06 05:22:39;;;;;;;67.90;53.80;;;;;;;20.64;66.40;99059.42;223643;183;137387;-67
2023/07/06 05:27:43;;;;;;;26.60;20.40;;;;;;;20.70;65.44;99069.80;223860;183;143624;-64
2023/07/06 05:32:48;;;;;;;8.10;4.00;;;;;;;20.76;64.09;99085.91;223648;183;138392;-66
2023/07/06 05:37:52;;;;;;;7.00;3.40;;;;;;;20.76;63.02;99094.40;223464;183;136443;-66
2023/07/06 05:42:55;;;;;;;8.10;3.10;;;;;;;20.75;61.89;99098.81;223496;183;144033;-65
2023/07/06 05:47:58;;;;;;;7.90;4.20;;;;;;;20.81;61.54;99102.02;223690;182;138434;-68
2023/07/06 05:53:02;;;;;;;6.00;3.10;;;;;;;20.88;60.72;99106.45;223667;183;136160;-63
2023/07/06 05:58:06;;;;;;;5.20;2.70;;;;;;;20.96;59.31;99119.14;223703;182;145838;-66
2023/07/06 06:03:11;;;;;;;65.20;52.10;;;;;;;21.02;58.27;99123.95;223639;182;139845;-72
2023/07/06 06:08:18;;;;;;;10.90;6.20;;;;;;;21.10;57.10;99121.92;223609;183;137165;-67
2023/07/06 06:13:22;;;;;;;4.50;2.60;;;;;;;21.13;56.67;99127.54;223611;182;146332;-68
2023/07/06 06:18:25;;;;;;;9.40;2.90;;;;;;;21.14;56.49;99130.48;223673;181;138309;-68
2023/07/06 06:23:28;;;;;;;8.60;2.80;;;;;;;21.14;56.81;99132.44;223566;181;136555;-65
2023/07/06 06:28:32;;;;;;;6.00;2.90;;;;;;;21.14;56.92;99131.52;223686;181;145708;-66
2023/07/06 06:33:35;;;;;;;12.00;2.90;;;;;;;21.13;57.28;99139.04;223779;181;138425;-68
2023/07/06 06:38:38;;;;;;;9.00;2.80;;;;;;;21.20;57.18;99142.80;223700;181;136335;-67
2023/07/06 06:43:44;;;;;;;8.10;3.00;;;;;;;21.24;56.84;99149.62;223662;181;147449;-68
2023/07/06 06:48:47;;;;;;;8.70;4.30;;;;;;;21.24;56.75;99158.14;223687;182;138274;-68
2023/07/06 06:53:53;;;;;;;7.00;2.90;;;;;;;21.22;56.54;99168.35;223726;181;137109;-67
2023/07/06 06:58:57;;;;;;;11.50;2.90;;;;;;;21.20;56.61;99173.88;223746;181;146165;-65
2023/07/06 07:04:00;;;;;;;6.30;2.70;;;;;;;21.16;56.32;99175.19;223741;181;140518;-65
2023/07/06 07:09:17;;;;;;;12.20;3.00;;;;;;;21.17;56.21;99168.80;223713;181;136238;-65
2023/07/06 07:14:22;;;;;;;6.20;2.80;;;;;;;21.17;56.41;99165.74;223674;181;146841;-65
2023/07/06 07:19:28;;;;;;;6.70;3.10;;;;;;;21.12;56.81;99166.94;223701;181;138424;-65
2023/07/06 07:24:32;;;;;;;11.40;3.30;;;;;;;21.14;56.77;99172.36;223656;181;137019;-67
2023/07/06 07:29:36;;;;;;;8.90;3.20;;;;;;;21.16;57.17;99181.89;223714;181;145810;-66
2023/07/06 07:34:40;;;;;;;17.20;11.10;;;;;;;21.13;57.20;99184.68;223685;181;139348;-65
2023/07/06 07:39:45;;;;;;;15.20;4.60;;;;;;;21.12;58.18;99188.11;223737;182;137140;-66
2023/07/06 07:44:48;;;;;;;;;;;;;;;21.13;59.10;99198.64;223651;181;145355;-65
2023/07/06 07:49:54;;;;;;;9.40;4.40;;;;;;;21.07;59.23;99199.06;223743;178;138407;-66
2023/07/06 07:54:57;;;;;;;10.40;5.10;;;;;;;21.00;59.88;99202.82;223696;181;136854;-66
2023/07/06 08:00:01;;;;;;;10.40;5.30;;;;;;;20.93;60.11;99203.02;223707;181;145515;-64
2023/07/06 08:05:16;;;;;;;10.60;4.50;;;;;;;20.87;60.07;99205.63;223727;181;138139;-66
2023/07/06 08:10:19;;;;;;;10.30;5.30;;;;;;;20.81;60.44;99204.93;223630;181;137107;-66
2023/07/06 08:15:23;;;;;;;7.70;4.60;;;;;;;20.82;60.73;99198.40;223718;181;145267;-66
2023/07/06 08:20:28;;;;;;;11.20;4.80;;;;;;;20.79;60.95;99197.00;223711;181;138790;-66
2023/07/06 08:25:51;;;;;;;10.10;4.80;;;;;;;20.84;60.99;99204.51;223629;181;137284;-65
2023/07/06 08:30:55;;;;;;;13.90;8.20;;;;;;;20.85;61.30;99212.86;223768;181;145336;-65
2023/07/06 08:36:01;;;;;;;11.90;5.00;;;;;;;20.88;61.41;99213.04;223626;181;138283;-68
2023/07/06 08:41:30;;;;;;;11.10;4.40;;;;;;;20.89;61.15;99210.95;223527;181;137656;-67
2023/07/06 08:46:39;;;;;;;10.00;4.20;;;;;;;20.90;61.19;99211.11;223699;181;144966;-68
2023/07/06 08:51:44;;;;;;;13.80;4.10;;;;;;;20.93;60.83;99212.23;223667;181;138316;-69
2023/07/06 08:56:49;;;;;;;10.50;4.80;;;;;;;21.02;60.64;99209.32;223701;181;139817;-68
2023/07/06 09:01:53;;;;;;;10.50;4.10;;;;;;;21.12;60.26;99213.32;223757;181;145245;-68
2023/07/06 09:06:58;;;;;;;9.80;4.00;;;;;;;21.25;60.39;99214.86;223726;181;138211;-69
2023/07/06 09:12:17;;;;;;;11.10;4.30;;;;;;;21.33;59.96;99219.86;223751;181;138084;-68
2023/07/06 09:17:21;;;;;;;10.40;4.50;;;;;;;21.42;59.76;99214.49;223564;181;147226;-66
2023/07/06 09:22:24;;;;;;;10.60;4.40;;;;;;;21.54;60.23;99211.21;223745;181;138094;-66
2023/07/06 09:27:27;;;;;;;6.80;3.70;;;;;;;21.71;60.09;99215.64;223811;181;139772;-66
2023/07/06 09:32:32;;;;;;;12.40;6.20;;;;;;;21.86;59.46;99215.16;223787;181;145787;-65
2023/07/06 09:37:47;;;;;;;7.10;3.20;;;;;;;22.03;57.70;99219.35;223673;181;138187;-66
2023/07/06 09:42:50;;;;;;;6.10;3.80;;;;;;;22.13;56.46;99214.63;223805;182;137245;-65
2023/07/06 09:48:30;;;;;;;5.50;3.30;;;;;;;22.20;56.20;99215.58;223682;181;145320;-65
2023/07/06 09:53:49;;;;;;;7.10;3.10;;;;;;;22.29;54.03;99211.47;223748;181;138999;-65
2023/07/06 09:58:53;;;;;;;7.50;3.10;;;;;;;22.33;52.25;99215.04;223651;181;137702;-65
2023/07/06 10:04:18;;;;;;;7.20;2.90;;;;;;;22.39;52.24;99215.80;223765;181;145551;-65
2023/07/06 10:09:28;;;;;;;12.90;3.30;;;;;;;22.49;52.48;99209.55;223699;181;138429;-65
2023/07/06 10:14:48;;;;;;;6.90;3.10;;;;;;;22.58;52.56;99207.01;223678;181;140106;-65
2023/07/06 10:20:03;;;;;;;9.90;3.60;;;;;;;22.70;52.49;99213.88;223714;181;145766;-65
2023/07/06 10:25:39;;;;;;;7.70;3.40;;;;;;;22.82;52.38;99211.60;223625;181;140652;-65
2023/07/06 10:30:49;;;;;;;6.70;3.30;;;;;;;22.95;51.77;99211.73;223703;181;137974;-64
2023/07/06 10:35:53;;;;;;;8.40;3.20;;;;;;;23.06;51.14;99214.48;223721;180;145045;-65
2023/07/06 10:41:10;;;;;;;9.60;2.80;;;;;;;23.11;49.91;99216.65;223763;181;138064;-66
2023/07/06 10:46:36;;;;;;;4.90;2.30;;;;;;;23.16;48.53;99213.22;223794;181;137799;-65
2023/07/06 10:51:50;;;;;;;5.90;2.60;;;;;;;23.17;46.94;99222.35;223784;181;145578;-66
2023/07/06 10:57:10;;;;;;;5.10;2.40;;;;;;;23.24;46.90;99223.12;223662;180;138291;-65
2023/07/06 11:02:36;;;;;;;5.90;2.40;;;;;;;23.36;45.73;99221.44;223590;181;137125;-66
2023/07/06 11:07:49;;;;;;;52.60;38.70;;;;;;;23.40;44.82;99226.96;223540;181;145074;-65
2023/07/06 11:13:09;;;;;;;21.60;15.90;;;;;;;23.33;43.99;99226.80;223710;181;140321;-65
2023/07/06 11:18:32;;;;;;;12.10;5.80;;;;;;;23.35;45.72;99226.21;223535;181;137947;-65
2023/07/06 11:23:45;;;;;;;69.50;56.10;;;;;;;23.41;45.99;99233.05;223653;181;145321;-64
2023/07/06 11:28:49;;;;;;;9.30;5.60;;;;;;;23.34;43.21;99229.61;223674;181;138346;-64
2023/07/06 11:34:09;;;;;;;11.90;9.20;;;;;;;23.34;43.55;99228.45;223659;181;136667;-65
2023/07/06 11:39:26;;;;;;;38.80;33.50;;;;;;;23.41;43.15;99230.49;223712;180;145589;-64
2023/07/06 11:44:49;;;;;;;5.60;3.00;;;;;;;23.41;43.71;99230.45;223670;181;138976;-64
2023/07/06 11:49:59;;;;;;;5.10;2.80;;;;;;;23.50;44.40;99237.19;223683;181;136403;-66
2023/07/06 12:02:18;;;;;;;8.60;2.60;;;;;;;23.88;44.57;99248.30;219478;194;688245;-66
2023/07/06 12:07:32;;;;;;;4.40;2.50;;;;;;;23.74;42.41;99247.89;223052;187;136307;-67
2023/07/06 12:12:38;;;;;;;5.10;2.50;;;;;;;23.50;42.15;99244.49;223425;184;143722;-66
2023/07/06 12:17:43;;;;;;;7.50;2.90;;;;;;;23.29;42.43;99244.63;223255;185;138767;-66
2023/07/06 12:22:54;;;;;;;5.10;2.80;;;;;;;23.14;42.37;99246.27;223564;184;136909;-67
2023/07/06 12:27:59;;;;;;;5.70;2.60;;;;;;;23.06;42.52;99249.58;223503;184;144240;-65
2023/07/06 12:33:04;;;;;;;5.10;2.50;;;;;;;23.01;42.51;99245.97;223466;184;139079;-66
2023/07/06 12:38:19;;;;;;;197.70;154.60;;;;;;;22.96;42.97;99247.13;223449;184;140082;-66
2023/07/06 12:43:26;;;;;;;12.40;7.90;;;;;;;22.88;43.39;99241.33;223396;185;143383;-65
2023/07/06 12:48:30;;;;;;;5.70;3.20;;;;;;;22.92;44.44;99232.09;223527;183;138269;-65
2023/07/06 12:53:33;;;;;;;5.30;2.80;;;;;;;22.96;44.61;99229.48;223394;184;137102;-65
2023/07/06 12:58:38;;;;;;;23.10;16.20;;;;;;;23.00;45.09;99237.23;223568;183;146334;-65
2023/07/06 14:02:12;;;;;;;12.00;6.10;;;;;;;23.56;45.46;99214.84;220120;193;2697449;-65
2023/07/06 14:07:18;;;;;;;6.60;2.90;;;;;;;23.54;46.17;99215.90;223616;182;137086;-66
2023/07/06 14:12:22;;;;;;;6.20;3.00;;;;;;;23.51;45.28;99224.22;223707;182;143389;-65
2023/07/06 14:17:25;;;;;;;9.20;3.40;;;;;;;23.48;45.19;99229.69;223511;181;140146;-66
2023/07/06 14:22:29;;;;;;;8.40;4.70;;;;;;;23.50;45.97;99226.54;223727;181;139630;-66
2023/07/06 14:27:36;;;;;;;27.60;24.70;;;;;;;23.59;46.54;99228.55;223677;181;143656;-66
2023/07/06 14:32:40;;;;;;;5.80;4.20;;;;;;;23.70;46.07;99226.10;223623;181;140173;-66
2023/07/06 14:37:44;;;;;;;40.80;31.30;;;;;;;23.82;46.11;99229.42;223809;178;136663;-67
2023/07/06 14:42:53;;;;;;;14.10;12.50;;;;;;;23.92;46.06;99223.38;223724;181;143406;-65
2023/07/06 14:47:59;;;;;;;45.40;38.10;;;;;;;24.00;45.45;99213.98;223722;181;138447;-65
2023/07/06 14:53:03;;;;;;;7.50;5.10;;;;;;;24.13;44.49;99206.27;223846;181;136912;-67
2023/07/06 15:02:06;;;;;;;13.60;10.20;;;;;;;24.25;44.02;99202.67;221614;193;686837;-64
2023/07/06 15:07:09;;;;;;;9.60;6.10;;;;;;;24.27;44.14;99203.75;223471;184;136864;-66
2023/07/06 15:12:13;;;;;;;52.10;42.20;;;;;;;24.19;43.56;99205.98;223443;184;144679;-65
2023/07/06 15:17:16;;;;;;;10.80;4.00;;;;;;;23.97;42.73;99210.91;223509;183;138770;-66
2023/07/06 15:22:19;;;;;;;6.00;3.30;;;;;;;23.88;43.22;99212.14;223641;183;136774;-66
2023/07/06 15:27:22;;;;;;;8.20;6.00;;;;;;;23.86;43.44;99214.63;223557;183;143496;-65
2023/07/06 15:32:26;;;;;;;4.90;3.60;;;;;;;23.82;43.75;99206.59;223536;183;138102;-65
2023/07/06 15:37:30;;;;;;;8.00;3.50;;;;;;;23.77;43.53;99202.51;223593;183;140256;-63
2023/07/06 15:42:33;;;;;;;6.00;3.50;;;;;;;23.60;42.07;99209.77;223666;183;143925;-64
2023/07/06 15:47:37;;;;;;;9.50;5.00;;;;;;;23.53;42.54;99214.47;223645;182;138446;-65
2023/07/06 15:53:07;;;;;;;11.00;6.80;;;;;;;23.52;42.41;99214.20;223706;183;136006;-65
2023/07/06 15:58:11;;;;;;;143.30;105.70;;;;;;;23.49;43.27;99210.70;223615;183;145757;-65
2023/07/06 16:03:14;;;;;;;143.10;125.90;;;;;;;23.48;42.74;99204.38;223502;183;140002;-64
2023/07/06 16:08:18;;;;;;;12.80;9.30;;;;;;;23.45;44.00;99207.36;223617;182;138584;-64
2023/07/06 16:13:24;;;;;;;12.30;6.10;;;;;;;23.48;44.25;99209.05;223566;183;146013;-65
2023/07/06 16:18:27;;;;;;;21.10;14.30;;;;;;;23.48;44.73;99206.88;223531;183;139219;-66
2023/07/06 16:23:31;;;;;;;8.20;4.70;;;;;;;23.45;44.44;99208.81;223580;183;137464;-65
2023/07/06 16:28:38;;;;;;;15.70;11.20;;;;;;;23.45;45.34;99207.52;223486;183;145262;-65
2023/07/06 16:33:41;;;;;;;10.20;5.70;;;;;;;23.50;45.60;99202.79;223383;183;138925;-64
2023/07/06 16:38:46;;;;;;;8.30;4.50;;;;;;;23.55;44.51;99202.45;223529;183;136886;-64
2023/07/06 16:43:49;;;;;;;247.10;220.60;;;;;;;23.59;44.87;99201.27;223636;183;145681;-64
2023/07/06 16:48:52;;;;;;;11.30;10.10;;;;;;;23.59;45.81;99199.94;223522;183;138474;-65
2023/07/06 16:53:55;;;;;;;81.10;61.30;;;;;;;23.53;45.84;99200.11;223534;183;137842;-64
2023/07/06 16:58:58;;;;;;;19.90;14.50;;;;;;;23.49;45.67;99208.73;223632;182;145816;-64
2023/07/06 17:04:02;;;;;;;11.10;5.60;;;;;;;23.42;46.16;99213.47;223616;181;141810;-65
2023/07/06 17:09:05;;;;;;;15.10;10.00;;;;;;;23.42;46.23;99213.48;223640;182;137569;-65
2023/07/06 17:14:08;;;;;;;159.80;132.20;;;;;;;23.48;46.32;99211.05;223776;181;146102;-65
2023/07/06 17:19:11;;;;;;;14.80;11.00;;;;;;;23.47;45.79;99208.41;223544;182;138394;-66
2023/07/06 17:24:15;;;;;;;8.80;5.10;;;;;;;23.34;45.08;99203.71;223733;181;137370;-63
2023/07/06 17:29:18;;;;;;;6.20;3.60;;;;;;;23.17;45.02;99211.28;223688;182;144973;-64
2023/07/06 17:34:21;;;;;;;7.80;3.50;;;;;;;22.99;45.52;99213.91;223713;182;139009;-64
2023/07/06 17:39:24;;;;;;;8.80;3.70;;;;;;;22.84;45.35;99217.58;223656;182;137104;-65
2023/07/06 17:44:27;;;;;;;7.70;4.20;;;;;;;22.75;46.02;99217.20;223671;182;145277;-65
2023/07/06 17:49:31;;;;;;;6.90;3.50;;;;;;;22.62;46.34;99219.33;223745;181;138259;-64
2023/07/06 17:54:34;;;;;;;5.90;3.80;;;;;;;22.50;46.11;99220.06;223700;182;137751;-66
2023/07/06 17:59:37;;;;;;;5.30;3.30;;;;;;;22.41;45.57;99233.63;223639;183;146346;-67
2023/07/06 18:04:41;;;;;;;8.40;3.80;;;;;;;22.34;45.47;99234.12;223637;183;139708;-65
2023/07/06 18:09:44;;;;;;;4.60;3.30;;;;;;;22.24;45.25;99227.77;223687;181;137079;-66
2023/07/06 18:14:48;;;;;;;4.70;3.30;;;;;;;22.12;45.46;99232.06;223656;182;145208;-66
2023/07/06 18:19:51;;;;;;;7.70;3.40;;;;;;;21.99;45.34;99229.48;223640;182;138625;-65
2023/07/06 18:24:54;;;;;;;4.50;3.00;;;;;;;21.86;45.49;99234.98;223746;181;136677;-67
2023/07/06 18:29:58;;;;;;;4.80;3.20;;;;;;;21.74;45.93;99237.62;223692;182;145878;-67
2023/07/06 18:35:01;;;;;;;5.20;3.30;;;;;;;21.61;46.17;99240.94;223604;182;140019;-66
2023/07/06 18:40:05;;;;;;;4.80;3.30;;;;;;;21.47;46.66;99245.44;223756;182;136558;-66
2023/07/06 18:45:09;;;;;;;6.10;2.90;;;;;;;21.33;47.38;99254.09;223658;182;145319;-63
2023/07/06 18:50:12;;;;;;;5.60;3.60;;;;;;;21.20;47.17;99255.58;223716;183;139136;-63
2023/07/06 18:55:17;;;;;;;11.90;3.70;;;;;;;21.07;48.11;99256.11;223727;182;136908;-63
2023/07/06 19:00:20;;;;;;;;;;;;;;;20.93;49.12;99264.65;223672;181;145867;-63
2023/07/06 19:05:24;;;;;;;10.80;4.50;;;;;;;20.81;49.64;99273.45;223867;182;138728;-64
2023/07/06 19:10:27;;;;;;;85.10;61.10;;;;;;;20.72;50.16;99279.41;223779;182;140051;-64
2023/07/06 19:15:30;;;;;;;9.00;6.10;;;;;;;20.63;51.23;99287.16;223700;182;145818;-64
2023/07/06 19:20:34;;;;;;;9.70;5.00;;;;;;;20.53;51.67;99293.03;223690;182;139040;-63
2023/07/06 19:25:40;;;;;;;9.10;4.70;;;;;;;20.44;51.96;99294.29;223736;182;136376;-64
2023/07/06 19:30:44;;;;;;;;;;;;;;;20.34;52.22;99296.00;223615;182;147286;-64
2023/07/06 19:35:48;;;;;;;9.40;4.10;;;;;;;20.21;52.54;99303.27;223793;182;139372;-63
2023/07/06 19:40:53;;;;;;;9.00;4.30;;;;;;;20.10;53.64;99305.39;223777;182;137165;-64
2023/07/06 19:46:01;;;;;;;9.90;4.20;;;;;;;20.02;54.22;99308.95;223776;183;145210;-65
2023/07/06 19:51:24;;;;;;;9.00;4.70;;;;;;;19.94;54.39;99314.91;223718;182;138422;-67
2023/07/06 19:56:27;;;;;;;9.00;5.30;;;;;;;19.83;54.75;99315.53;223731;182;136718;-65
2023/07/06 20:01:31;;;;;;;11.70;5.40;;;;;;;19.75;55.80;99316.11;223680;181;145936;-65
2023/07/06 20:06:39;;;;;;;10.70;5.00;;;;;;;19.66;55.95;99322.44;223619;182;138758;-67
2023/07/06 20:11:54;;;;;;;11.80;5.20;;;;;;;19.55;55.83;99326.78;223619;181;137486;-66
2023/07/06 20:16:57;;;;;;;13.90;5.40;;;;;;;19.47;56.31;99328.48;223736;183;145780;-64
2023/07/06 20:22:01;;;;;;;17.00;6.70;;;;;;;19.38;57.08;99329.32;223755;182;139753;-65
2023/07/06 20:27:04;;;;;;;15.00;5.70;;;;;;;19.30;57.68;99335.15;223757;181;137730;-65
2023/07/06 20:32:11;;;;;;;15.70;5.60;;;;;;;19.22;58.51;99342.85;223604;181;144977;-65
2023/07/06 20:37:14;;;;;;;14.30;5.70;;;;;;;19.14;58.85;99343.48;223625;182;138447;-66
2023/07/06 20:42:18;;;;;;;18.40;5.50;;;;;;;19.07;59.34;99349.49;223666;181;137452;-65
2023/07/06 20:47:21;;;;;;;16.50;5.80;;;;;;;19.01;59.86;99360.08;223529;181;146994;-66
2023/07/06 20:52:26;;;;;;;17.90;6.20;;;;;;;18.95;60.32;99361.42;223553;181;140061;-68
2023/07/06 20:57:29;;;;;;;16.50;5.80;;;;;;;18.87;60.81;99368.02;223589;181;137238;-65
2023/07/06 21:02:32;;;;;;;13.00;5.60;;;;;;;18.80;61.36;99371.91;223621;182;145608;-66
2023/07/06 21:07:36;;;;;;;11.90;5.40;;;;;;;18.72;61.72;99373.17;223655;181;138641;-66
2023/07/06 21:12:39;;;;;;;14.40;6.00;;;;;;;18.62;62.12;99370.27;223731;181;137354;-66
2023/07/06 21:17:42;;;;;;;11.80;5.60;;;;;;;18.56;62.53;99374.77;223675;182;145799;-65
2023/07/06 21:22:45;;;;;;;15.90;5.90;;;;;;;18.49;62.89;99377.26;223623;181;138958;-68
2023/07/06 21:27:49;;;;;;;14.20;5.60;;;;;;;18.38;63.27;99375.28;223753;181;138359;-64
2023/07/06 21:32:52;;;;;;;12.10;5.80;;;;;;;18.34;63.60;99379.45;223632;181;145764;-68
2023/07/06 21:37:55;;;;;;;10.80;5.70;;;;;;;18.33;63.53;99380.98;223535;182;138922;-68
2023/07/06 21:42:59;;;;;;;15.80;5.80;;;;;;;18.33;63.59;99380.05;223611;182;137847;-62
2023/07/06 21:48:04;;;;;;;18.90;6.00;;;;;;;18.30;63.73;99380.52;223653;181;145839;-65
